createdAt,value
2019-01-17T00:00:22.953Z,97.55
2019-01-17T00:01:23.410Z,98.02
2019-01-17T00:02:22.932Z,97.55
2019-01-17T00:03:22.925Z,97.74
2019-01-17T00:04:22.915Z,98.12
2019-01-17T00:05:22.900Z,97.55
2019-01-17T00:06:22.890Z,97.55
2019-01-17T00:07:22.877Z,98.12
2019-01-17T00:08:22.871Z,98.12
2019-01-17T00:09:22.862Z,98.59
2019-01-17T00:10:22.849Z,98.69
2019-01-17T00:11:22.839Z,98.40
2019-01-17T00:12:22.829Z,98.59
2019-01-17T00:13:22.818Z,98.50
2019-01-17T00:14:22.808Z,98.88
2019-01-17T00:15:22.795Z,98.21
2019-01-17T00:16:22.784Z,98.69
2019-01-17T00:17:22.775Z,98.97
2019-01-17T00:18:22.767Z,99.16
2019-01-17T00:19:22.749Z,98.59
2019-01-17T00:20:22.740Z,98.12
2019-01-17T00:21:22.732Z,98.12
2019-01-17T00:22:22.719Z,97.27
2019-01-17T00:23:22.711Z,97.17
2019-01-17T00:24:22.705Z,97.07
2019-01-17T00:25:22.685Z,96.79
2019-01-17T00:26:22.682Z,96.88
2019-01-17T00:27:22.669Z,96.60
2019-01-17T00:28:22.656Z,96.41
2019-01-17T00:29:22.642Z,96.03
2019-01-17T00:30:22.635Z,96.22
2019-01-17T00:31:22.623Z,95.65
2019-01-17T00:32:22.612Z,95.65
2019-01-17T00:33:22.603Z,95.17
2019-01-17T00:34:22.592Z,94.79
2019-01-17T00:35:22.576Z,94.32
2019-01-17T00:36:22.570Z,94.32
2019-01-17T00:37:22.562Z,94.60
2019-01-17T00:38:22.551Z,94.23
2019-01-17T00:39:22.537Z,94.23
2019-01-17T00:40:22.530Z,93.84
2019-01-17T00:41:22.519Z,95.08
2019-01-17T00:42:22.506Z,94.51
2019-01-17T00:43:22.500Z,94.42
2019-01-17T00:44:22.485Z,95.03
2019-01-17T00:45:22.472Z,95.46
2019-01-17T00:46:22.462Z,95.08
2019-01-17T00:47:22.453Z,94.98
2019-01-17T00:48:22.437Z,95.17
2019-01-17T00:49:22.432Z,95.55
2019-01-17T00:50:22.420Z,95.94
2019-01-17T00:51:22.411Z,95.27
2019-01-17T00:52:22.403Z,95.46
2019-01-17T00:53:22.390Z,96.03
2019-01-17T00:54:22.376Z,96.12
2019-01-17T00:55:22.361Z,96.03
2019-01-17T00:56:22.356Z,96.12
2019-01-17T00:57:22.347Z,96.41
2019-01-17T00:58:22.341Z,96.60
2019-01-17T00:59:22.326Z,96.60
2019-01-17T01:00:22.319Z,96.79
2019-01-17T01:01:22.299Z,96.88
2019-01-17T01:02:22.289Z,96.98
2019-01-17T01:03:22.278Z,97.36
2019-01-17T01:04:22.272Z,96.98
2019-01-17T01:05:22.258Z,97.36
2019-01-17T01:06:22.251Z,97.64
2019-01-17T01:07:22.244Z,97.64
2019-01-17T01:08:22.229Z,97.36
2019-01-17T01:09:22.220Z,97.83
2019-01-17T01:10:22.208Z,98.31
2019-01-17T01:11:22.203Z,97.55
2019-01-17T01:12:22.189Z,98.02
2019-01-17T01:13:22.180Z,97.83
2019-01-17T01:14:22.171Z,98.02
2019-01-17T01:15:22.155Z,98.02
2019-01-17T01:16:22.147Z,98.69
2019-01-17T01:17:22.135Z,99.07
2019-01-17T01:18:22.127Z,98.40
2019-01-17T01:19:22.113Z,98.40
2019-01-17T01:20:22.108Z,98.21
2019-01-17T01:21:22.101Z,99.26
2019-01-17T01:22:22.084Z,98.97
2019-01-17T01:23:22.077Z,99.83
2019-01-17T01:24:22.063Z,99.73
2019-01-17T01:25:22.053Z,99.64
2019-01-17T01:26:22.044Z,99.44
2019-01-17T01:27:22.033Z,99.99
2019-01-17T01:28:22.028Z,99.83
2019-01-17T01:29:22.011Z,99.92
2019-01-17T01:30:22.001Z,99.92
2019-01-17T01:31:21.995Z,99.83
2019-01-17T01:32:21.983Z,99.73
2019-01-17T01:33:21.975Z,99.99
2019-01-17T01:34:21.964Z,99.99
2019-01-17T01:35:21.947Z,99.92
2019-01-17T01:36:21.937Z,99.92
2019-01-17T01:37:21.932Z,99.83
2019-01-17T01:38:21.919Z,99.64
2019-01-17T01:39:21.908Z,99.92
2019-01-17T01:40:21.898Z,99.99
2019-01-17T01:41:21.894Z,99.73
2019-01-17T01:42:21.877Z,99.99
2019-01-17T01:43:21.862Z,99.99
2019-01-17T01:44:21.857Z,99.99
2019-01-17T01:45:21.839Z,99.99
2019-01-17T01:46:21.832Z,99.99
2019-01-17T01:47:21.813Z,99.99
2019-01-17T01:48:21.817Z,99.99
2019-01-17T01:49:21.794Z,99.99
2019-01-17T01:50:21.807Z,99.99
2019-01-17T01:51:21.773Z,99.99
2019-01-17T01:52:21.765Z,99.99
2019-01-17T01:53:21.756Z,99.99
2019-01-17T01:54:22.066Z,99.99
2019-01-17T01:55:21.729Z,99.99
2019-01-17T01:56:21.718Z,99.99
2019-01-17T01:57:21.712Z,99.99
2019-01-17T01:58:21.701Z,99.99
2019-01-17T01:59:21.686Z,99.99
2019-01-17T02:00:21.680Z,99.99
2019-01-17T02:01:21.670Z,99.99
2019-01-17T02:02:21.659Z,99.99
2019-01-17T02:03:21.647Z,99.99
2019-01-17T02:04:21.654Z,99.99
2019-01-17T02:05:21.622Z,99.99
2019-01-17T02:06:21.617Z,99.99
2019-01-17T02:07:21.605Z,99.99
2019-01-17T02:08:21.595Z,99.99
2019-01-17T02:09:21.579Z,99.99
2019-01-17T02:10:21.570Z,99.99
2019-01-17T02:11:21.563Z,99.99
2019-01-17T02:12:21.554Z,99.99
2019-01-17T02:13:21.539Z,99.99
2019-01-17T02:14:21.526Z,99.99
2019-01-17T02:15:21.520Z,99.99
2019-01-17T02:16:21.504Z,99.99
2019-01-17T02:17:21.503Z,99.99
2019-01-17T02:18:21.486Z,99.99
2019-01-17T02:19:21.471Z,99.99
2019-01-17T02:20:21.460Z,99.99
2019-01-17T02:21:21.452Z,99.99
2019-01-17T02:22:21.443Z,99.99
2019-01-17T02:23:21.430Z,99.99
2019-01-17T02:24:21.417Z,99.99
2019-01-17T02:25:21.406Z,99.99
2019-01-17T02:26:21.397Z,99.99
2019-01-17T02:27:21.385Z,99.99
2019-01-17T02:28:21.379Z,99.99
2019-01-17T02:29:21.359Z,99.99
2019-01-17T02:30:21.351Z,99.99
2019-01-17T02:31:21.334Z,99.99
2019-01-17T02:32:21.328Z,99.99
2019-01-17T02:33:21.322Z,99.99
2019-01-17T02:34:21.302Z,99.99
2019-01-17T02:35:21.291Z,99.99
2019-01-17T02:36:21.287Z,99.99
2019-01-17T02:37:21.271Z,99.99
2019-01-17T02:38:21.258Z,99.99
2019-01-17T02:39:21.246Z,99.99
2019-01-17T02:40:21.237Z,99.99
2019-01-17T02:41:21.228Z,99.99
2019-01-17T02:42:21.213Z,99.99
2019-01-17T02:43:21.201Z,99.99
2019-01-17T02:44:21.191Z,99.99
2019-01-17T02:45:21.176Z,99.99
2019-01-17T02:46:21.163Z,99.99
2019-01-17T02:47:21.153Z,99.99
2019-01-17T02:48:21.143Z,99.99
2019-01-17T02:49:21.137Z,99.99
2019-01-17T02:50:21.121Z,99.99
2019-01-17T02:51:21.105Z,99.99
2019-01-17T02:52:21.106Z,99.99
2019-01-17T02:53:21.089Z,99.99
2019-01-17T02:54:21.089Z,99.99
2019-01-17T02:55:21.062Z,99.99
2019-01-17T02:56:21.050Z,99.99
2019-01-17T02:57:21.042Z,99.99
2019-01-17T02:58:21.026Z,99.99
2019-01-17T02:59:21.010Z,99.99
2019-01-17T03:00:21.005Z,99.99
2019-01-17T03:01:20.991Z,99.99
2019-01-17T03:02:20.980Z,99.99
2019-01-17T03:03:20.976Z,99.99
2019-01-17T03:04:20.960Z,99.99
2019-01-17T03:05:20.950Z,99.99
2019-01-17T03:06:20.938Z,99.99
2019-01-17T03:07:20.923Z,99.99
2019-01-17T03:08:20.910Z,99.99
2019-01-17T03:09:20.898Z,99.99
2019-01-17T03:10:20.892Z,99.99
2019-01-17T03:11:20.874Z,99.99
2019-01-17T03:12:20.868Z,99.99
2019-01-17T03:13:20.857Z,99.99
2019-01-17T03:14:20.837Z,99.99
2019-01-17T03:15:20.829Z,99.99
2019-01-17T03:16:20.825Z,99.99
2019-01-17T03:17:20.808Z,99.99
2019-01-17T03:18:20.799Z,99.99
2019-01-17T03:19:20.787Z,99.99
2019-01-17T03:20:20.773Z,99.99
2019-01-17T03:21:20.763Z,99.99
2019-01-17T03:22:20.753Z,99.99
2019-01-17T03:23:20.757Z,99.99
2019-01-17T03:24:20.726Z,99.99
2019-01-17T03:25:20.722Z,99.99
2019-01-17T03:26:20.710Z,99.99
2019-01-17T03:27:20.696Z,99.99
2019-01-17T03:28:20.685Z,99.99
2019-01-17T03:29:20.676Z,99.99
2019-01-17T03:30:20.664Z,99.99
2019-01-17T03:31:20.654Z,99.99
2019-01-17T03:32:20.643Z,99.99
2019-01-17T03:33:20.636Z,99.99
2019-01-17T03:34:20.616Z,99.99
2019-01-17T03:35:20.605Z,99.99
2019-01-17T03:36:20.601Z,99.99
2019-01-17T03:37:20.583Z,99.99
2019-01-17T03:38:20.577Z,99.99
2019-01-17T03:39:20.560Z,99.99
2019-01-17T03:40:20.551Z,99.99
2019-01-17T03:41:20.540Z,99.99
2019-01-17T03:42:20.533Z,99.99
2019-01-17T03:43:20.516Z,99.99
2019-01-17T03:44:20.508Z,99.99
2019-01-17T03:45:20.496Z,99.99
2019-01-17T03:46:20.487Z,99.99
2019-01-17T03:47:20.475Z,99.99
2019-01-17T03:48:20.466Z,99.99
2019-01-17T03:49:20.456Z,99.99
2019-01-17T03:50:20.443Z,99.99
2019-01-17T03:51:20.431Z,99.99
2019-01-17T03:52:20.431Z,99.99
2019-01-17T03:53:20.412Z,99.99
2019-01-17T03:54:20.395Z,99.99
2019-01-17T03:55:20.387Z,99.99
2019-01-17T03:56:21.680Z,99.99
2019-01-17T03:57:20.365Z,99.99
2019-01-17T03:58:20.355Z,99.99
2019-01-17T03:59:20.354Z,99.99
2019-01-17T04:00:20.331Z,99.99
2019-01-17T04:01:20.318Z,99.99
2019-01-17T04:02:20.305Z,99.99
2019-01-17T04:03:20.301Z,99.99
2019-01-17T04:04:20.284Z,99.99
2019-01-17T04:05:20.273Z,99.99
2019-01-17T04:06:20.265Z,99.99
2019-01-17T04:07:20.254Z,99.99
2019-01-17T04:08:20.244Z,99.99
2019-01-17T04:09:20.230Z,99.99
2019-01-17T04:10:20.221Z,99.99
2019-01-17T04:11:20.209Z,99.99
2019-01-17T04:12:20.197Z,99.99
2019-01-17T04:13:20.183Z,99.99
2019-01-17T04:14:20.176Z,99.99
2019-01-17T04:15:20.167Z,99.99
2019-01-17T04:16:20.150Z,99.99
2019-01-17T04:17:20.142Z,99.99
2019-01-17T04:18:20.134Z,99.99
2019-01-17T04:19:20.124Z,99.99
2019-01-17T04:20:20.112Z,99.99
2019-01-17T04:21:20.097Z,99.99
2019-01-17T04:22:20.091Z,99.99
2019-01-17T04:23:20.077Z,99.99
2019-01-17T04:24:20.068Z,99.99
2019-01-17T04:25:20.053Z,99.99
2019-01-17T04:26:20.051Z,99.99
2019-01-17T04:27:20.035Z,99.99
2019-01-17T04:28:20.041Z,99.99
2019-01-17T04:29:20.010Z,99.99
2019-01-17T04:30:20.010Z,99.99
2019-01-17T04:31:19.993Z,99.99
2019-01-17T04:32:19.979Z,99.99
2019-01-17T04:33:19.976Z,99.99
2019-01-17T04:34:19.958Z,99.99
2019-01-17T04:35:19.945Z,99.99
2019-01-17T04:36:19.934Z,99.99
2019-01-17T04:37:19.930Z,99.99
2019-01-17T04:38:19.914Z,99.99
2019-01-17T04:39:19.908Z,99.99
2019-01-17T04:40:19.894Z,99.99
2019-01-17T04:41:19.882Z,99.99
2019-01-17T04:42:19.868Z,99.99
2019-01-17T04:43:19.857Z,99.99
2019-01-17T04:44:19.854Z,99.99
2019-01-17T04:45:19.844Z,99.99
2019-01-17T04:46:19.829Z,99.99
2019-01-17T04:47:19.818Z,99.99
2019-01-17T04:48:19.806Z,99.99
2019-01-17T04:49:19.798Z,99.99
2019-01-17T04:50:19.785Z,99.99
2019-01-17T04:51:19.777Z,99.99
2019-01-17T04:52:19.764Z,99.99
2019-01-17T04:53:19.756Z,99.99
2019-01-17T04:54:19.743Z,99.99
2019-01-17T04:55:19.730Z,99.99
2019-01-17T04:56:19.725Z,99.99
2019-01-17T04:57:19.715Z,99.99
2019-01-17T04:58:19.701Z,99.99
2019-01-17T04:59:19.689Z,99.99
2019-01-17T05:00:19.676Z,99.99
2019-01-17T05:01:19.673Z,99.99
2019-01-17T05:02:19.663Z,99.99
2019-01-17T05:03:19.648Z,99.99
2019-01-17T05:04:19.637Z,99.99
2019-01-17T05:05:19.625Z,99.99
2019-01-17T05:06:19.613Z,99.99
2019-01-17T05:07:19.610Z,99.99
2019-01-17T05:08:19.593Z,99.99
2019-01-17T05:09:19.588Z,99.99
2019-01-17T05:10:19.579Z,99.99
2019-01-17T05:11:19.565Z,99.99
2019-01-17T05:12:19.553Z,99.99
2019-01-17T05:13:19.544Z,99.99
2019-01-17T05:14:19.532Z,99.99
2019-01-17T05:15:19.516Z,99.99
2019-01-17T05:16:19.509Z,99.99
2019-01-17T05:17:19.504Z,99.99
2019-01-17T05:18:19.488Z,99.99
2019-01-17T05:19:19.480Z,99.99
2019-01-17T05:20:19.466Z,99.99
2019-01-17T05:21:19.456Z,99.99
2019-01-17T05:22:19.446Z,99.99
2019-01-17T05:23:19.440Z,99.99
2019-01-17T05:24:19.425Z,99.99
2019-01-17T05:25:19.418Z,99.99
2019-01-17T05:26:19.407Z,99.99
2019-01-17T05:27:19.396Z,99.99
2019-01-17T05:28:19.389Z,99.99
2019-01-17T05:29:19.378Z,99.99
2019-01-17T05:30:19.369Z,99.99
2019-01-17T05:31:19.358Z,99.99
2019-01-17T05:32:19.345Z,99.99
2019-01-17T05:33:19.344Z,99.99
2019-01-17T05:34:19.327Z,99.99
2019-01-17T05:35:19.315Z,99.99
2019-01-17T05:36:19.302Z,99.99
2019-01-17T05:37:19.296Z,99.99
2019-01-17T05:38:19.285Z,99.99
2019-01-17T05:39:19.276Z,99.99
2019-01-17T05:40:19.265Z,99.99
2019-01-17T05:41:19.253Z,99.99
2019-01-17T05:42:19.242Z,99.99
2019-01-17T05:43:19.236Z,99.99
2019-01-17T05:44:19.222Z,99.99
2019-01-17T05:45:19.209Z,99.99
2019-01-17T05:46:19.201Z,99.99
2019-01-17T05:47:19.193Z,99.99
2019-01-17T05:48:19.182Z,99.99
2019-01-17T05:49:19.169Z,99.99
2019-01-17T05:50:19.167Z,99.99
2019-01-17T05:51:19.151Z,99.99
2019-01-17T05:52:19.143Z,99.99
2019-01-17T05:53:19.134Z,99.99
2019-01-17T05:54:19.122Z,99.99
2019-01-17T05:55:20.001Z,99.99
2019-01-17T05:56:19.100Z,99.99
2019-01-17T05:57:19.088Z,99.99
2019-01-17T05:58:19.084Z,99.99
2019-01-17T05:59:19.075Z,99.99
2019-01-17T06:00:19.065Z,99.99
2019-01-17T06:01:19.051Z,99.99
2019-01-17T06:02:19.039Z,99.99
2019-01-17T06:03:19.029Z,99.99
2019-01-17T06:04:19.028Z,99.99
2019-01-17T06:05:19.006Z,99.99
2019-01-17T06:06:19.000Z,99.99
2019-01-17T06:07:18.997Z,99.99
2019-01-17T06:08:18.980Z,99.99
2019-01-17T06:09:18.969Z,99.99
2019-01-17T06:10:18.999Z,99.99
2019-01-17T06:11:18.952Z,99.99
2019-01-17T06:12:18.937Z,99.99
2019-01-17T06:13:18.930Z,99.99
2019-01-17T06:14:18.918Z,99.99
2019-01-17T06:15:18.907Z,99.99
2019-01-17T06:16:18.894Z,99.99
2019-01-17T06:17:18.888Z,99.99
2019-01-17T06:18:18.880Z,99.99
2019-01-17T06:19:18.868Z,99.99
2019-01-17T06:20:18.858Z,99.99
2019-01-17T06:21:18.848Z,99.99
2019-01-17T06:22:18.839Z,99.99
2019-01-17T06:23:18.826Z,99.99
2019-01-17T06:24:18.814Z,99.99
2019-01-17T06:25:18.807Z,99.99
2019-01-17T06:26:18.795Z,99.99
2019-01-17T06:27:18.785Z,99.99
2019-01-17T06:28:18.779Z,99.99
2019-01-17T06:29:18.768Z,99.99
2019-01-17T06:30:18.756Z,99.99
2019-01-17T06:31:18.747Z,99.99
2019-01-17T06:32:18.742Z,99.99
2019-01-17T06:33:18.726Z,99.99
2019-01-17T06:34:18.719Z,99.99
2019-01-17T06:35:18.707Z,99.99
2019-01-17T06:36:18.691Z,99.99
2019-01-17T06:37:18.684Z,99.99
2019-01-17T06:38:18.677Z,99.99
2019-01-17T06:39:18.664Z,99.99
2019-01-17T06:40:18.654Z,99.99
2019-01-17T06:41:18.646Z,99.99
2019-01-17T06:42:18.635Z,99.99
2019-01-17T06:43:18.624Z,99.99
2019-01-17T06:44:20.542Z,99.99
2019-01-17T06:45:18.605Z,99.99
2019-01-17T06:46:18.597Z,99.99
2019-01-17T06:47:18.583Z,99.99
2019-01-17T06:48:18.573Z,99.99
2019-01-17T06:49:18.570Z,99.99
2019-01-17T06:50:18.552Z,99.99
2019-01-17T06:51:18.543Z,99.99
2019-01-17T06:52:18.534Z,99.99
2019-01-17T06:53:18.557Z,99.99
2019-01-17T06:54:18.515Z,99.99
2019-01-17T06:55:18.501Z,99.99
2019-01-17T06:56:18.493Z,99.99
2019-01-17T06:57:18.481Z,99.99
2019-01-17T06:58:18.479Z,99.99
2019-01-17T06:59:18.466Z,99.99
2019-01-17T07:00:18.455Z,99.99
2019-01-17T07:01:18.446Z,99.99
2019-01-17T07:02:18.433Z,99.99
2019-01-17T07:03:18.419Z,99.99
2019-01-17T07:04:18.418Z,99.99
2019-01-17T07:05:18.404Z,99.99
2019-01-17T07:06:18.399Z,99.99
2019-01-17T07:07:18.384Z,99.99
2019-01-17T07:08:18.373Z,99.99
2019-01-17T07:09:18.367Z,99.99
2019-01-17T07:10:18.354Z,99.99
2019-01-17T07:11:18.341Z,99.99
2019-01-17T07:12:18.335Z,99.99
2019-01-17T07:13:18.325Z,99.99
2019-01-17T07:14:18.316Z,99.99
2019-01-17T07:15:18.306Z,99.99
2019-01-17T07:16:18.295Z,99.99
2019-01-17T07:17:18.280Z,99.99
2019-01-17T07:18:18.278Z,99.99
2019-01-17T07:19:18.263Z,99.99
2019-01-17T07:20:18.256Z,99.99
2019-01-17T07:21:18.243Z,99.99
2019-01-17T07:22:18.237Z,99.99
2019-01-17T07:23:18.224Z,99.99
2019-01-17T07:24:18.217Z,99.99
2019-01-17T07:25:18.206Z,99.99
2019-01-17T07:26:18.198Z,99.99
2019-01-17T07:27:18.186Z,99.99
2019-01-17T07:28:18.173Z,99.99
2019-01-17T07:29:18.164Z,99.99
2019-01-17T07:30:18.153Z,99.99
2019-01-17T07:31:18.140Z,99.99
2019-01-17T07:32:18.133Z,99.99
2019-01-17T07:33:18.124Z,99.99
2019-01-17T07:34:18.116Z,99.99
2019-01-17T07:35:18.104Z,99.99
2019-01-17T07:36:18.092Z,99.99
2019-01-17T07:37:18.081Z,99.99
2019-01-17T07:38:18.072Z,99.99
2019-01-17T07:39:18.628Z,99.99
2019-01-17T07:40:18.062Z,99.99
2019-01-17T07:41:18.044Z,99.99
2019-01-17T07:42:18.035Z,99.99
2019-01-17T07:43:18.023Z,99.99
2019-01-17T07:44:18.015Z,99.99
2019-01-17T07:45:17.999Z,99.99
2019-01-17T07:46:17.993Z,99.99
2019-01-17T07:47:17.982Z,99.99
2019-01-17T07:48:17.974Z,99.99
2019-01-17T07:49:17.969Z,99.99
2019-01-17T07:50:17.951Z,99.99
2019-01-17T07:51:17.941Z,99.99
2019-01-17T07:52:17.934Z,99.99
2019-01-17T07:53:17.924Z,99.99
2019-01-17T07:54:17.914Z,99.99
2019-01-17T07:55:17.907Z,99.99
2019-01-17T07:56:17.890Z,99.99
2019-01-17T07:57:17.882Z,99.99
2019-01-17T07:58:17.874Z,99.99
2019-01-17T07:59:17.861Z,99.99
2019-01-17T08:00:17.850Z,99.99
2019-01-17T08:01:17.843Z,99.99
2019-01-17T08:02:17.831Z,99.99
2019-01-17T08:03:17.822Z,99.99
2019-01-17T08:04:17.815Z,99.99
2019-01-17T08:05:17.799Z,99.99
2019-01-17T08:06:17.796Z,99.99
2019-01-17T08:07:17.779Z,99.99
2019-01-17T08:08:17.810Z,99.99
2019-01-17T08:09:17.760Z,99.99
2019-01-17T08:10:17.755Z,99.99
2019-01-17T08:11:18.525Z,99.99
2019-01-17T08:12:17.733Z,99.99
2019-01-17T08:13:17.724Z,99.99
2019-01-17T08:14:17.713Z,99.99
2019-01-17T08:15:17.706Z,99.99
2019-01-17T08:16:17.694Z,99.99
2019-01-17T08:17:17.682Z,99.99
2019-01-17T08:18:18.712Z,99.99
2019-01-17T08:19:17.661Z,99.99
2019-01-17T08:20:17.653Z,99.99
2019-01-17T08:21:17.644Z,99.99
2019-01-17T08:22:17.634Z,99.99
2019-01-17T08:23:17.626Z,99.99
2019-01-17T08:24:17.615Z,99.99
2019-01-17T08:25:17.606Z,99.99
2019-01-17T08:26:17.595Z,99.99
2019-01-17T08:27:17.582Z,99.99
2019-01-17T08:28:17.573Z,99.99
2019-01-17T08:29:17.562Z,99.99
2019-01-17T08:30:17.558Z,99.99
2019-01-17T08:31:17.544Z,99.99
2019-01-17T08:32:17.535Z,99.99
2019-01-17T08:33:17.523Z,99.99
2019-01-17T08:34:17.511Z,99.99
2019-01-17T08:35:17.501Z,99.99
2019-01-17T08:36:17.497Z,99.99
2019-01-17T08:37:17.486Z,99.99
2019-01-17T08:38:17.476Z,99.99
2019-01-17T08:39:17.463Z,99.99
2019-01-17T08:40:20.353Z,99.99
2019-01-17T08:41:17.443Z,99.99
2019-01-17T08:42:17.436Z,99.99
2019-01-17T08:43:17.427Z,99.99
2019-01-17T08:44:17.413Z,99.99
2019-01-17T08:45:17.407Z,99.99
2019-01-17T08:46:17.398Z,99.99
2019-01-17T08:47:17.387Z,99.99
2019-01-17T08:48:17.379Z,99.99
2019-01-17T08:49:17.364Z,99.99
2019-01-17T08:50:17.362Z,99.99
2019-01-17T08:51:17.350Z,99.99
2019-01-17T08:52:17.339Z,99.99
2019-01-17T08:53:17.331Z,99.99
2019-01-17T08:54:17.316Z,99.99
2019-01-17T08:55:17.309Z,99.99
2019-01-17T08:56:17.302Z,99.99
2019-01-17T08:57:17.961Z,99.99
2019-01-17T08:58:17.287Z,99.99
2019-01-17T08:59:17.269Z,99.99
2019-01-17T09:00:17.257Z,99.99
2019-01-17T09:01:17.249Z,99.99
2019-01-17T09:02:17.243Z,99.99
2019-01-17T09:03:17.231Z,99.99
2019-01-17T09:04:17.217Z,99.99
2019-01-17T09:05:17.208Z,99.99
2019-01-17T09:06:17.203Z,99.99
2019-01-17T09:07:17.190Z,99.99
2019-01-17T09:08:17.183Z,99.99
2019-01-17T09:09:17.171Z,99.99
2019-01-17T09:10:17.157Z,99.99
2019-01-17T09:11:17.151Z,99.99
2019-01-17T09:12:17.143Z,99.99
2019-01-17T09:13:17.135Z,99.99
2019-01-17T09:14:17.124Z,99.99
2019-01-17T09:15:17.114Z,99.99
2019-01-17T09:16:17.109Z,99.99
2019-01-17T09:17:17.096Z,99.99
2019-01-17T09:18:17.086Z,99.99
2019-01-17T09:19:17.076Z,99.99
2019-01-17T09:20:17.064Z,99.99
2019-01-17T09:21:17.054Z,99.99
2019-01-17T09:22:17.048Z,99.99
2019-01-17T09:23:17.037Z,99.99
2019-01-17T09:24:17.028Z,99.99
2019-01-17T09:25:17.016Z,99.99
2019-01-17T09:26:17.009Z,99.99
2019-01-17T09:27:16.998Z,99.99
2019-01-17T09:28:16.989Z,99.99
2019-01-17T09:29:16.977Z,99.99
2019-01-17T09:30:16.966Z,99.99
2019-01-17T09:31:16.958Z,99.99
2019-01-17T09:32:16.952Z,99.99
2019-01-17T09:33:16.940Z,99.99
2019-01-17T09:34:16.932Z,99.99
2019-01-17T09:35:16.917Z,99.99
2019-01-17T09:36:16.912Z,99.99
2019-01-17T09:37:16.903Z,99.99
2019-01-17T09:38:16.895Z,99.99
2019-01-17T09:39:16.883Z,99.99
2019-01-17T09:40:16.872Z,99.99
2019-01-17T09:41:16.870Z,99.99
2019-01-17T09:42:16.850Z,99.99
2019-01-17T09:43:16.846Z,99.99
2019-01-17T09:44:16.833Z,99.99
2019-01-17T09:45:16.823Z,99.99
2019-01-17T09:46:16.815Z,99.99
2019-01-17T09:47:16.803Z,99.99
2019-01-17T09:48:16.795Z,99.99
2019-01-17T09:49:16.781Z,99.99
2019-01-17T09:50:16.775Z,99.99
2019-01-17T09:51:16.763Z,99.99
2019-01-17T09:52:16.756Z,99.99
2019-01-17T09:53:16.748Z,99.99
2019-01-17T09:54:16.734Z,99.99
2019-01-17T09:55:16.724Z,99.99
2019-01-17T09:56:16.716Z,99.99
2019-01-17T09:57:16.707Z,99.99
2019-01-17T09:58:16.699Z,99.99
2019-01-17T09:59:16.685Z,99.99
2019-01-17T10:00:16.678Z,99.99
2019-01-17T10:01:16.669Z,99.99
2019-01-17T10:02:16.660Z,99.99
2019-01-17T10:03:16.650Z,99.99
2019-01-17T10:04:16.638Z,99.99
2019-01-17T10:05:16.630Z,99.99
2019-01-17T10:06:16.623Z,99.99
2019-01-17T10:07:16.612Z,99.99
2019-01-17T10:08:16.600Z,99.99
2019-01-17T10:09:16.585Z,99.99
2019-01-17T10:10:16.582Z,99.99
2019-01-17T10:11:16.572Z,99.99
2019-01-17T10:12:16.560Z,99.99
2019-01-17T10:13:16.553Z,99.99
2019-01-17T10:14:16.549Z,99.99
2019-01-17T10:15:16.532Z,99.99
2019-01-17T10:16:16.519Z,99.99
2019-01-17T10:17:16.516Z,99.99
2019-01-17T10:18:16.502Z,99.99
2019-01-17T10:19:16.488Z,99.99
2019-01-17T10:20:16.483Z,99.99
2019-01-17T10:21:16.475Z,99.99
2019-01-17T10:22:16.462Z,99.99
2019-01-17T10:23:16.455Z,99.99
2019-01-17T10:24:16.445Z,99.99
2019-01-17T10:25:16.435Z,99.99
2019-01-17T10:26:21.158Z,99.99
2019-01-17T10:27:16.415Z,99.99
2019-01-17T10:28:16.406Z,99.99
2019-01-17T10:29:16.390Z,99.99
2019-01-17T10:30:16.390Z,99.99
2019-01-17T10:31:16.372Z,99.99
2019-01-17T10:32:16.362Z,99.99
2019-01-17T10:33:16.354Z,99.99
2019-01-17T10:34:16.343Z,99.99
2019-01-17T10:35:16.335Z,99.99
2019-01-17T10:36:16.323Z,99.99
2019-01-17T10:37:16.311Z,99.99
2019-01-17T10:38:16.302Z,99.99
2019-01-17T10:39:16.288Z,99.99
2019-01-17T10:40:16.283Z,99.99
2019-01-17T10:41:16.269Z,99.99
2019-01-17T10:42:16.258Z,99.99
2019-01-17T10:43:16.245Z,99.99
2019-01-17T10:44:16.235Z,99.99
2019-01-17T10:45:16.234Z,99.99
2019-01-17T10:46:16.224Z,99.99
2019-01-17T10:47:16.208Z,99.99
2019-01-17T10:48:16.198Z,99.99
2019-01-17T10:49:16.186Z,99.99
2019-01-17T10:50:16.175Z,99.99
2019-01-17T10:51:16.171Z,99.99
2019-01-17T10:52:16.164Z,99.99
2019-01-17T10:53:16.150Z,99.99
2019-01-17T10:54:16.142Z,99.99
2019-01-17T10:55:16.124Z,99.99
2019-01-17T10:56:16.114Z,99.99
2019-01-17T10:57:16.103Z,99.99
2019-01-17T10:58:16.100Z,99.99
2019-01-17T10:59:16.088Z,99.99
2019-01-17T11:00:16.073Z,99.99
2019-01-17T11:01:16.068Z,99.99
2019-01-17T11:02:16.058Z,99.74
2019-01-17T11:03:16.043Z,99.45
2019-01-17T11:04:16.031Z,99.45
2019-01-17T11:05:16.021Z,99.31
2019-01-17T11:06:16.014Z,98.27
2019-01-17T11:07:16.000Z,98.74
2019-01-17T11:08:15.993Z,99.41
2019-01-17T11:09:15.985Z,98.65
2019-01-17T11:10:15.973Z,98.22
2019-01-17T11:11:15.962Z,96.89
2019-01-17T11:12:15.962Z,96.98
2019-01-17T11:13:15.941Z,96.98
2019-01-17T11:14:15.932Z,97.08
2019-01-17T11:15:15.916Z,97.36
2019-01-17T11:16:15.908Z,97.83
2019-01-17T11:17:15.899Z,97.83
2019-01-17T11:18:15.888Z,97.45
2019-01-17T11:19:15.878Z,97.27
2019-01-17T11:20:15.865Z,97.08
2019-01-17T11:21:15.859Z,96.26
2019-01-17T11:22:15.844Z,96.36
2019-01-17T11:23:15.838Z,95.89
2019-01-17T11:24:15.816Z,95.51
2019-01-17T11:25:15.817Z,95.89
2019-01-17T11:26:15.806Z,97.13
2019-01-17T11:27:15.799Z,96.84
2019-01-17T11:28:15.784Z,97.22
2019-01-17T11:29:15.773Z,97.03
2019-01-17T11:30:15.764Z,96.94
2019-01-17T11:31:15.747Z,97.03
2019-01-17T11:32:15.741Z,96.74
2019-01-17T11:33:15.733Z,97.13
2019-01-17T11:34:15.723Z,97.31
2019-01-17T11:35:15.707Z,97.50
2019-01-17T11:36:15.704Z,97.03
2019-01-17T11:37:15.688Z,96.69
2019-01-17T11:38:15.678Z,97.13
2019-01-17T11:39:15.669Z,96.84
2019-01-17T11:40:15.656Z,97.17
2019-01-17T11:41:15.652Z,98.83
2019-01-17T11:42:15.639Z,99.41
2019-01-17T11:43:15.625Z,98.74
2019-01-17T11:44:15.616Z,99.41
2019-01-17T11:45:15.603Z,99.99
2019-01-17T11:46:15.593Z,99.99
2019-01-17T11:47:15.585Z,99.99
2019-01-17T11:48:15.576Z,99.99
2019-01-17T11:49:15.563Z,99.88
2019-01-17T11:50:15.552Z,99.99
2019-01-17T11:51:15.540Z,99.74
2019-01-17T11:52:15.533Z,99.99
2019-01-17T11:53:15.521Z,99.99
2019-01-17T11:54:15.516Z,99.36
2019-01-17T11:55:15.506Z,99.74
2019-01-17T11:56:15.496Z,99.45
2019-01-17T11:57:15.484Z,99.84
2019-01-17T11:58:15.475Z,99.99
2019-01-17T11:59:15.460Z,99.99
2019-01-17T12:00:15.455Z,99.69
2019-01-17T12:01:15.441Z,99.22
2019-01-17T12:02:15.433Z,99.12
2019-01-17T12:03:15.422Z,99.22
2019-01-17T12:04:15.406Z,98.83
2019-01-17T12:05:15.406Z,98.08
2019-01-17T12:06:15.391Z,97.98
2019-01-17T12:07:15.381Z,98.55
2019-01-17T12:08:15.368Z,97.88
2019-01-17T12:09:15.357Z,97.98
2019-01-17T12:10:15.350Z,97.79
2019-01-17T12:11:15.334Z,98.08
2019-01-17T12:12:15.332Z,97.98
2019-01-17T12:13:17.529Z,97.41
2019-01-17T12:14:15.309Z,97.69
2019-01-17T12:15:15.297Z,98.08
2019-01-17T12:16:15.288Z,96.94
2019-01-17T12:17:15.278Z,97.31
2019-01-17T12:18:15.268Z,97.31
2019-01-17T12:19:15.251Z,96.17
2019-01-17T12:20:15.247Z,96.26
2019-01-17T12:21:15.237Z,96.17
2019-01-17T12:22:15.227Z,97.31
2019-01-17T12:23:15.215Z,96.94
2019-01-17T12:24:15.209Z,97.60
2019-01-17T12:25:15.196Z,97.31
2019-01-17T12:26:15.217Z,97.50
2019-01-17T12:27:15.176Z,98.08
2019-01-17T12:28:16.445Z,98.74
2019-01-17T12:29:15.155Z,98.74
2019-01-17T12:30:15.145Z,98.65
2019-01-17T12:31:15.128Z,99.22
2019-01-17T12:32:15.119Z,98.27
2019-01-17T12:33:15.112Z,98.08
2019-01-17T12:34:15.104Z,98.17
2019-01-17T12:35:15.089Z,98.17
2019-01-17T12:36:15.079Z,98.74
2019-01-17T12:37:15.068Z,98.74
2019-01-17T12:38:15.057Z,97.88
2019-01-17T12:39:15.045Z,97.79
2019-01-17T12:40:15.033Z,98.08
2019-01-17T12:41:15.027Z,97.22
2019-01-17T12:42:15.016Z,98.08
2019-01-17T12:43:15.002Z,97.69
2019-01-17T12:44:14.996Z,97.41
2019-01-17T12:45:14.979Z,98.08
2019-01-17T12:46:14.976Z,98.27
2019-01-17T12:47:14.963Z,98.65
2019-01-17T12:48:14.951Z,99.16
2019-01-17T12:49:14.939Z,99.55
2019-01-17T12:50:14.935Z,99.36
2019-01-17T12:51:14.916Z,99.93
2019-01-17T12:52:14.905Z,99.93